createdAt,value
2022-08-25T00:02:07.530Z,57.80
2022-08-25T00:06:17.415Z,58.20
2022-08-25T00:10:20.622Z,58.10
2022-08-25T00:14:29.813Z,57.90
2022-08-25T00:18:33.320Z,57.70
2022-08-25T00:22:37.708Z,57.90
2022-08-25T00:26:44.763Z,57.60
2022-08-25T00:30:49.812Z,58.10
2022-08-25T00:34:53.770Z,58.20
2022-08-25T00:38:56.799Z,58.40
2022-08-25T00:43:00.889Z,58.60
2022-08-25T00:47:06.311Z,58.50
2022-08-25T00:51:14.503Z,58.20
2022-08-25T00:55:26.870Z,58.00
2022-08-25T00:59:30.844Z,57.80
2022-08-25T01:03:35.917Z,57.90
2022-08-25T01:07:40.380Z,58.40
2022-08-25T01:11:48.348Z,58.80
2022-08-25T01:15:55.371Z,58.90
2022-08-25T01:19:58.511Z,59.50
2022-08-25T01:24:03.593Z,59.50
2022-08-25T01:28:06.692Z,59.70
2022-08-25T01:32:13.311Z,60.10
2022-08-25T01:36:20.103Z,60.20
2022-08-25T01:40:24.293Z,60.50
2022-08-25T01:44:27.202Z,60.40
2022-08-25T01:48:30.025Z,60.60
2022-08-25T01:52:45.808Z,60.70
2022-08-25T01:56:53.213Z,60.70
2022-08-25T02:01:02.043Z,60.60
2022-08-25T02:05:06.993Z,60.40
2022-08-25T02:09:15.391Z,60.30
2022-08-25T02:13:24.815Z,60.00
2022-08-25T02:17:36.657Z,59.60
2022-08-25T02:21:40.785Z,59.60
2022-08-25T02:25:46.137Z,59.50
2022-08-25T02:29:53.586Z,59.30
2022-08-25T02:33:57.525Z,59.10
2022-08-25T02:38:02.447Z,58.90
2022-08-25T02:42:06.183Z,58.60
2022-08-25T02:46:12.362Z,58.70
2022-08-25T02:50:15.240Z,58.30
2022-08-25T02:54:18.095Z,58.10
2022-08-25T02:58:21.233Z,57.80
2022-08-25T03:02:24.871Z,57.80
2022-08-25T03:06:30.630Z,57.50
2022-08-25T03:10:34.355Z,57.50
2022-08-25T03:14:38.028Z,57.50
2022-08-25T03:22:59.434Z,57.50
2022-08-25T03:27:02.713Z,57.60
2022-08-25T03:31:05.881Z,57.50
2022-08-25T03:35:14.047Z,57.50
2022-08-25T03:39:20.875Z,57.60
2022-08-25T03:43:24.957Z,57.90
2022-08-25T03:47:30.008Z,57.90
2022-08-25T03:51:37.538Z,58.00
2022-08-25T03:55:41.436Z,58.10
2022-08-25T03:59:44.619Z,58.20
2022-08-25T04:03:48.643Z,58.30
2022-08-25T04:07:51.515Z,58.40
2022-08-25T04:11:54.382Z,58.60
2022-08-25T04:17:06.126Z,58.80
2022-08-25T04:21:11.252Z,58.50
2022-08-25T04:25:15.369Z,59.00
2022-08-25T04:29:23.544Z,59.10
2022-08-25T04:33:32.276Z,59.40
2022-08-25T04:37:35.693Z,59.50
2022-08-25T04:41:39.155Z,59.60
2022-08-25T04:45:42.263Z,59.50
2022-08-25T04:55:24.607Z,59.20
2022-08-25T04:59:30.376Z,59.50
2022-08-25T05:03:34.025Z,59.40
2022-08-25T05:07:37.619Z,59.40
2022-08-25T05:11:40.713Z,59.30
2022-08-25T05:15:52.852Z,59.30
2022-08-25T05:19:56.188Z,59.10
2022-08-25T05:29:31.049Z,58.60
2022-08-25T05:38:06.356Z,58.40
2022-08-25T05:42:13.250Z,58.40
2022-08-25T05:50:37.009Z,58.10
2022-08-25T05:54:45.621Z,57.90
2022-08-25T06:00:03.284Z,57.70
2022-08-25T06:04:17.839Z,57.20
2022-08-25T06:08:20.770Z,56.90
2022-08-25T06:12:24.170Z,56.40
2022-08-25T06:16:27.231Z,56.10
2022-08-25T06:20:31.860Z,55.50
2022-08-25T06:24:35.554Z,55.20
2022-08-25T06:28:38.648Z,54.70
2022-08-25T06:32:43.068Z,54.10
2022-08-25T06:41:13.040Z,53.20
2022-08-25T06:45:20.722Z,52.70
2022-08-25T06:49:29.296Z,52.80
2022-08-25T06:53:35.939Z,52.20
2022-08-25T06:57:43.626Z,52.00
2022-08-25T07:01:46.929Z,51.80
2022-08-25T07:05:56.695Z,51.00
2022-08-25T07:10:51.426Z,50.40
2022-08-25T07:15:10.231Z,50.20
2022-08-25T07:27:58.875Z,49.40
2022-08-25T07:36:21.969Z,48.90
2022-08-25T07:40:28.935Z,48.80
2022-08-25T07:45:12.586Z,48.40
2022-08-25T07:49:16.701Z,48.10
2022-08-25T07:53:20.287Z,47.90
2022-08-25T07:57:27.485Z,47.50
2022-08-25T08:01:30.473Z,47.50
2022-08-25T08:05:35.433Z,46.50
2022-08-25T08:09:38.497Z,46.90
2022-08-25T08:13:42.321Z,46.10
2022-08-25T08:23:13.627Z,46.40
2022-08-25T08:27:16.853Z,46.20
2022-08-25T08:31:28.354Z,45.50
2022-08-25T08:35:31.806Z,45.60
2022-08-25T08:39:35.012Z,45.30
2022-08-25T08:43:43.172Z,45.30
2022-08-25T08:48:10.282Z,45.30
2022-08-25T08:57:46.767Z,44.90
2022-08-25T09:01:54.322Z,45.10
2022-08-25T09:06:06.900Z,44.50
2022-08-25T09:10:15.175Z,44.20
2022-08-25T09:14:32.544Z,43.40
2022-08-25T09:19:00.984Z,42.80
2022-08-25T09:23:20.603Z,42.70
2022-08-25T09:27:42.233Z,41.90
2022-08-25T09:32:24.104Z,42.10
2022-08-25T09:36:37.719Z,41.20
2022-08-25T09:40:50.308Z,41.00
2022-08-25T09:44:57.743Z,41.00
2022-08-25T09:49:17.748Z,40.40
2022-08-25T09:53:21.981Z,40.80
2022-08-25T09:57:39.237Z,40.20
2022-08-25T10:06:56.433Z,40.20
2022-08-25T10:11:09.910Z,40.40
2022-08-25T10:15:32.754Z,39.90
2022-08-25T10:19:37.266Z,39.90
2022-08-25T10:24:02.916Z,39.60
2022-08-25T10:29:02.213Z,39.50
2022-08-25T10:33:25.159Z,39.30
2022-08-25T10:37:51.121Z,39.30
2022-08-25T10:46:36.540Z,38.60
2022-08-25T11:00:31.600Z,37.70
2022-08-25T11:04:56.179Z,37.70
2022-08-25T11:14:58.458Z,37.80
2022-08-25T11:19:28.246Z,37.80
2022-08-25T11:23:59.170Z,38.00
2022-08-25T11:28:48.509Z,38.10
2022-08-25T11:32:57.687Z,37.80
2022-08-25T11:41:51.197Z,37.40
2022-08-25T11:46:06.823Z,36.90
2022-08-25T11:54:58.593Z,37.30
2022-08-25T11:59:02.682Z,37.00
2022-08-25T12:03:42.481Z,37.00
2022-08-25T12:07:54.816Z,37.60
2022-08-25T12:11:59.356Z,37.90
2022-08-25T12:16:09.614Z,37.30
2022-08-25T12:20:12.763Z,37.00
2022-08-25T12:24:47.557Z,36.10
2022-08-25T12:29:07.572Z,36.30
2022-08-25T12:33:38.743Z,36.60
2022-08-25T12:47:25.031Z,35.20
2022-08-25T12:51:34.123Z,35.40
2022-08-25T12:55:44.732Z,35.00
2022-08-25T12:59:57.483Z,35.30
2022-08-25T13:04:12.242Z,35.30
2022-08-25T13:08:46.601Z,35.10
2022-08-25T13:17:34.947Z,35.70
2022-08-25T13:21:49.600Z,34.50
2022-08-25T13:25:58.589Z,34.10
2022-08-25T13:30:10.539Z,34.60
2022-08-25T13:43:10.578Z,35.20
2022-08-25T13:47:31.517Z,35.10
2022-08-25T13:56:04.725Z,34.50
2022-08-25T14:00:11.952Z,34.40
2022-08-25T14:08:57.909Z,34.70
2022-08-25T14:13:10.798Z,34.90
2022-08-25T14:25:56.281Z,34.70
2022-08-25T14:29:59.371Z,34.50
2022-08-25T14:34:20.181Z,34.50
2022-08-25T14:42:40.950Z,34.70
2022-08-25T14:46:57.139Z,34.80
2022-08-25T14:51:04.163Z,34.40
2022-08-25T14:55:09.276Z,34.90
2022-08-25T15:03:38.919Z,34.40
2022-08-25T15:12:37.387Z,34.80
2022-08-25T15:16:57.439Z,34.90
2022-08-25T15:21:04.172Z,35.30
2022-08-25T15:25:08.977Z,34.90
2022-08-25T15:29:13.876Z,35.10
2022-08-25T15:33:19.206Z,34.80
2022-08-25T15:37:27.839Z,34.40
2022-08-25T15:41:38.473Z,34.60
2022-08-25T15:45:41.616Z,34.60
2022-08-25T15:49:45.031Z,34.20
2022-08-25T15:53:48.051Z,34.30
2022-08-25T15:57:56.880Z,34.40
2022-08-25T16:06:21.528Z,34.60
2022-08-25T16:10:25.358Z,34.90
2022-08-25T16:14:37.521Z,34.50
2022-08-25T16:18:41.303Z,35.10
2022-08-25T16:22:44.947Z,33.90
2022-08-25T16:26:51.695Z,33.60
2022-08-25T16:35:16.456Z,34.20
2022-08-25T16:39:21.071Z,33.90
2022-08-25T16:47:43.884Z,33.90
2022-08-25T16:51:57.332Z,33.00
2022-08-25T16:56:03.969Z,33.40
2022-08-25T17:00:14.121Z,32.30
2022-08-25T17:04:18.682Z,33.00
2022-08-25T17:08:30.965Z,33.50
2022-08-25T17:12:34.412Z,34.10
2022-08-25T17:16:38.060Z,34.80
2022-08-25T17:20:44.699Z,35.50
2022-08-25T17:24:53.357Z,35.90
2022-08-25T17:33:26.582Z,35.10
2022-08-25T17:37:33.100Z,34.80
2022-08-25T17:41:38.619Z,34.80
2022-08-25T17:45:44.021Z,34.80
2022-08-25T17:49:47.498Z,35.80
2022-08-25T17:53:54.252Z,36.60
2022-08-25T17:57:59.889Z,37.50
2022-08-25T18:02:03.357Z,38.20
2022-08-25T18:06:16.072Z,38.80
2022-08-25T18:10:20.066Z,39.50
2022-08-25T18:14:25.594Z,40.00
2022-08-25T18:18:29.194Z,40.80
2022-08-25T18:22:32.833Z,41.10
2022-08-25T18:26:36.627Z,41.60
2022-08-25T18:30:40.836Z,42.00
2022-08-25T18:34:44.043Z,42.50
2022-08-25T18:39:09.347Z,42.80
2022-08-25T18:43:14.483Z,43.30
2022-08-25T18:47:17.363Z,43.50
2022-08-25T18:51:28.380Z,43.60
2022-08-25T18:55:37.720Z,44.10
2022-08-25T18:59:42.862Z,44.20
2022-08-25T19:03:50.369Z,44.50
2022-08-25T19:07:59.309Z,44.70
2022-08-25T19:12:11.844Z,44.80
2022-08-25T19:16:43.671Z,45.00
2022-08-25T19:20:46.736Z,44.80
2022-08-25T19:24:49.631Z,45.40
2022-08-25T19:28:59.080Z,45.50
2022-08-25T19:33:03.869Z,45.50
2022-08-25T19:45:56.423Z,45.60
2022-08-25T19:54:50.746Z,45.30
2022-08-25T20:56:59.358Z,46.30
2022-08-25T21:01:03.487Z,46.40
2022-08-25T21:05:09.808Z,46.60
2022-08-25T21:22:16.419Z,46.60
2022-08-25T21:26:34.630Z,46.30
2022-08-25T21:30:49.475Z,46.40
2022-08-25T21:34:58.414Z,46.40
2022-08-25T21:52:05.415Z,47.20
2022-08-25T21:56:16.769Z,47.50
2022-08-25T22:04:39.561Z,48.30
2022-08-25T22:08:43.850Z,48.20
2022-08-25T22:12:48.429Z,48.50
2022-08-25T22:16:52.284Z,48.50
2022-08-25T22:20:55.858Z,48.40
2022-08-25T22:24:59.620Z,48.50
2022-08-25T22:29:05.720Z,48.60
2022-08-25T22:37:30.453Z,48.80
2022-08-25T22:41:34.572Z,49.10
2022-08-25T22:45:44.642Z,49.20
2022-08-25T22:49:48.623Z,49.60
2022-08-25T22:53:53.143Z,50.40
2022-08-25T22:57:56.809Z,50.90
2022-08-25T23:02:00.629Z,51.60
2022-08-25T23:06:03.749Z,51.80
2022-08-25T23:10:12.237Z,51.90
2022-08-25T23:14:16.582Z,52.30
2022-08-25T23:18:19.530Z,52.70
2022-08-25T23:22:22.791Z,53.20
2022-08-25T23:26:31.134Z,53.40
2022-08-25T23:30:36.127Z,53.80
2022-08-25T23:34:46.987Z,54.10
2022-08-25T23:38:54.609Z,54.30
2022-08-25T23:42:57.381Z,54.60
2022-08-25T23:47:00.234Z,55.00
2022-08-25T23:51:04.234Z,55.30
2022-08-25T23:55:07.743Z,55.00
2022-08-25T23:59:10.779Z,54.90
